Campbell AAF (Fort Campbell) Air Field
KHOP : now visible

Airfield :











YOU CAN JOIN US ON...

 
LOGIN :

Register | Disclaimer

   EN    FR    IT 

 









Legend :    VFR   Marginal VFR   IFR   Intensive IFR   Very Intensive IFR
Visi :
Ceiling :
>= 8 km
>= 3000ft
5 to 8 km
1000 to 3000 ft
1500m to 5 km
500 to 1000 ft
800 to 1500m
200 to 500 ft
< 800m
< 200 ft
Symbols :   Thunderstorms  Fog  Heavy snow  Heavy precipitations  Wind > 20 kt






- Airport Elevation : 573 ft


KHOP - Campbell AAF (Fort Campbell) Air Field

CURRENT METAR :
  • 010056Z AUTO 35009KT 10SM OVC065 10/02 A2993 RMK AO2 SLP138 T01030024

EXPIRED METARs :
  • 312356Z AUTO 34009KT 10SM OVC065 11/03 A2992 RMK AO2 SLP135 60000 T01090025 10128 20098 52020
  • 312256Z AUTO 34009KT 10SM OVC055 12/02 A2991 RMK AO2 SLP131 T01160023

TAF TAF KHOP
Valid from the 01 at 00:00 until the 02 at 06:00 UTC


010000Z 0100/0206 34012KT 9999 BKN030 QNH2991INS
BECMG 0104/0105 35006KT 9999 SCT030 QNH2995INS
BECMG 0117/0118 VRB06KT 9999 FEW050 QNH3005INS TX16/0121Z TN05/0112Z



MET'MAP, your aeronautical weather chart ! - Copyright ORBIFLY December 2007 - Disclaimer

ORBIFLY MET'MAP TEAM :

Programming & Development : Alexandra Zaïnal
Concept & original design : Baudouin d'Aumeries
Assistance for programming : Marc-Olivier Méhu
Technical & hardware support : Manuel Goepfert

Contact : metmap@orbifly.com




SOURCES & CREDITS :

   NOAA       Earth
Advisory